Amarant — SPG3207 — position and weather

sailwx.info

Track history (hours):
 
Tides and Currents Weather Stations Pressure Air Temp Water Temp Dewpoint Dewpoint Depression Visibility Wind Speed Wind Dir Waves Ship Positions

Amarant

Last reported at 2014-Jul-28 12:28 UTC. Time now 2014-Jul-28 14:21 UTC.
Position N 56°47' E 011°48'.

Length 14 m.

Type: Sailing vessel. MMSI: 261015190.

Date/timePositionNaut miles runAvg speedWind from/ knotsBaromVisibWave heightAir tempDewpointWater temp
2014-Jul-28 12:28N 56°47' E 011°48'35 5.7
2014-Jul-28 06:22N 57°18' E 011°19'5 5.6
2014-Jul-28 05:33N 57°22' E 011°16'167 5.4
2014-Jul-26 22:27N 58°08' E 006°15'5 5.1
2014-Jul-26 21:33N 58°12' E 006°09'6 5.6
2014-Jul-26 20:33N 58°16' E 006°03'6 5.6
2014-Jul-26 19:33N 58°21' E 005°57'5 5.1
2014-Jul-26 18:33N 58°25' E 005°51'5 4.9
2014-Jul-26 17:33N 58°28' E 005°44'27 5.5
2014-Jul-26 12:33N 58°55' E 005°32'6 5.7
2014-Jul-26 11:33N 59°01' E 005°33'4 3.9
2014-Jul-26 10:33N 59°01' E 005°40'3 2.6
2014-Jul-26 09:31N 58°58' E 005°44'0 0.0
2014-Jul-26 08:31N 58°58' E 005°44'0 0.0
2014-Jul-26 07:31N 58°58' E 005°44'0 0.0
2014-Jul-26 06:31N 58°58' E 005°44'0 0.0
2014-Jul-26 05:31N 58°58' E 005°44'0 0.0
2014-Jul-26 04:31N 58°58' E 005°44'0 0.0
2014-Jul-26 03:31N 58°58' E 005°44'0 0.0
2014-Jul-26 02:31N 58°58' E 005°44'0 0.0
2014-Jul-26 01:31N 58°58' E 005°44'0 0.0
2014-Jul-26 00:31N 58°58' E 005°44'0 0.0
2014-Jul-25 23:31N 58°58' E 005°44'0 0.0
2014-Jul-25 22:31N 58°58' E 005°44'0 0.0
2014-Jul-25 21:31N 58°58' E 005°44'0 0.2
2014-Jul-25 20:33N 58°58' E 005°44'2 2.0
2014-Jul-25 19:33N 58°60' E 005°47'6 0.5
2014-Jul-25 07:33N 59°04' E 005°55'0 0.0
2014-Jul-25 06:33N 59°04' E 005°55'0 0.0
2014-Jul-25 05:33N 59°04' E 005°55'0 0.0
2014-Jul-25 04:33N 59°04' E 005°55'0 0.0
2014-Jul-25 03:33N 59°04' E 005°55'0 0.0
2014-Jul-25 02:33N 59°04' E 005°55'0 0.0
2014-Jul-25 01:30N 59°04' E 005°55'0 0.0
2014-Jul-25 00:33N 59°04' E 005°55'0 0.0
2014-Jul-24 23:33N 59°04' E 005°55'0 0.0
2014-Jul-24 22:33N 59°04' E 005°55'0 0.0
2014-Jul-24 21:33N 59°04' E 005°55'0 0.0
2014-Jul-24 20:33N 59°04' E 005°55'0 0.0
2014-Jul-24 19:33N 59°04' E 005°55'0 0.0
2014-Jul-24 18:33N 59°04' E 005°55'0 0.0
2014-Jul-24 17:33N 59°04' E 005°55'0 0.0
2014-Jul-24 16:33N 59°04' E 005°55'2 1.9
2014-Jul-24 15:33N 59°03' E 005°51'4 4.4
2014-Jul-24 14:33N 59°05' E 005°43'3 3.0
2014-Jul-24 13:28N 59°06' E 005°37'3 3.7
2014-Jul-24 12:32N 59°07' E 005°31'4 3.8
2014-Jul-24 11:31N 59°08' E 005°23'4 0.3
2014-Jul-23 22:05N 59°09' E 005°15'0 0.0
2014-Jul-23 21:32N 59°09' E 005°15'0 0.0
2014-Jul-23 20:32N 59°09' E 005°15'0 0.0
2014-Jul-23 19:32N 59°09' E 005°15'0 0.0
2014-Jul-23 18:32N 59°09' E 005°15'0 0.0
2014-Jul-23 17:33N 59°09' E 005°15'1 0.8
2014-Jul-23 16:33N 59°08' E 005°17'3 2.5
2014-Jul-23 15:33N 59°11' E 005°20'  
2014-Jul-18 17:14N 60°24' E 005°14'3 3.6
2014-Jul-18 16:32N 60°24' E 005°19'  
Track history (hours):
 
Tides and Currents Weather Stations Pressure Air Temp Water Temp Dewpoint Dewpoint Depression Visibility Wind Speed Wind Dir Waves Ship Positions

Amarant

Last reported at 2014-Jul-28 12:28 UTC. Time now 2014-Jul-28 14:21 UTC.
Position N 56°47' E 011°48'.

Length 14 m.

Type: Sailing vessel. MMSI: 261015190.

Date/timePositionNaut miles runAvg speedWind from/ knotsBaromVisibWave heightAir tempDewpointWater temp
2014-Jul-28 12:28N 56°47' E 011°48'35 5.7
2014-Jul-28 06:22N 57°18' E 011°19'5 5.6
2014-Jul-28 05:33N 57°22' E 011°16'167 5.4
2014-Jul-26 22:27N 58°08' E 006°15'5 5.1
2014-Jul-26 21:33N 58°12' E 006°09'6 5.6
2014-Jul-26 20:33N 58°16' E 006°03'6 5.6
2014-Jul-26 19:33N 58°21' E 005°57'5 5.1
2014-Jul-26 18:33N 58°25' E 005°51'5 4.9
2014-Jul-26 17:33N 58°28' E 005°44'27 5.5
2014-Jul-26 12:33N 58°55' E 005°32'6 5.7
2014-Jul-26 11:33N 59°01' E 005°33'4 3.9
2014-Jul-26 10:33N 59°01' E 005°40'3 2.6
2014-Jul-26 09:31N 58°58' E 005°44'0 0.0
2014-Jul-26 08:31N 58°58' E 005°44'0 0.0
2014-Jul-26 07:31N 58°58' E 005°44'0 0.0
2014-Jul-26 06:31N 58°58' E 005°44'0 0.0
2014-Jul-26 05:31N 58°58' E 005°44'0 0.0
2014-Jul-26 04:31N 58°58' E 005°44'0 0.0
2014-Jul-26 03:31N 58°58' E 005°44'0 0.0
2014-Jul-26 02:31N 58°58' E 005°44'0 0.0
2014-Jul-26 01:31N 58°58' E 005°44'0 0.0
2014-Jul-26 00:31N 58°58' E 005°44'0 0.0
2014-Jul-25 23:31N 58°58' E 005°44'0 0.0
2014-Jul-25 22:31N 58°58' E 005°44'0 0.0
2014-Jul-25 21:31N 58°58' E 005°44'0 0.2
2014-Jul-25 20:33N 58°58' E 005°44'2 2.0
2014-Jul-25 19:33N 58°60' E 005°47'6 0.5
2014-Jul-25 07:33N 59°04' E 005°55'0 0.0
2014-Jul-25 06:33N 59°04' E 005°55'0 0.0
2014-Jul-25 05:33N 59°04' E 005°55'0 0.0
2014-Jul-25 04:33N 59°04' E 005°55'0 0.0
2014-Jul-25 03:33N 59°04' E 005°55'0 0.0
2014-Jul-25 02:33N 59°04' E 005°55'0 0.0
2014-Jul-25 01:30N 59°04' E 005°55'0 0.0
2014-Jul-25 00:33N 59°04' E 005°55'0 0.0
2014-Jul-24 23:33N 59°04' E 005°55'0 0.0
2014-Jul-24 22:33N 59°04' E 005°55'0 0.0
2014-Jul-24 21:33N 59°04' E 005°55'0 0.0
2014-Jul-24 20:33N 59°04' E 005°55'0 0.0
2014-Jul-24 19:33N 59°04' E 005°55'0 0.0
2014-Jul-24 18:33N 59°04' E 005°55'0 0.0
2014-Jul-24 17:33N 59°04' E 005°55'0 0.0
2014-Jul-24 16:33N 59°04' E 005°55'2 1.9
2014-Jul-24 15:33N 59°03' E 005°51'4 4.4
2014-Jul-24 14:33N 59°05' E 005°43'3 3.0
2014-Jul-24 13:28N 59°06' E 005°37'3 3.7
2014-Jul-24 12:32N 59°07' E 005°31'4 3.8
2014-Jul-24 11:31N 59°08' E 005°23'4 0.3
2014-Jul-23 22:05N 59°09' E 005°15'0 0.0
2014-Jul-23 21:32N 59°09' E 005°15'0 0.0
2014-Jul-23 20:32N 59°09' E 005°15'0 0.0
2014-Jul-23 19:32N 59°09' E 005°15'0 0.0
2014-Jul-23 18:32N 59°09' E 005°15'0 0.0
2014-Jul-23 17:33N 59°09' E 005°15'1 0.8
2014-Jul-23 16:33N 59°08' E 005°17'3 2.5
2014-Jul-23 15:33N 59°11' E 005°20'  
2014-Jul-18 17:14N 60°24' E 005°14'3 3.6
2014-Jul-18 16:32N 60°24' E 005°19'  

Dump ship's entire track history